WEATHER DATA

YESTERDAY
Time Temp. Dewp. Hum. Wind dir Wind speed Wind gust Bar. 1h Prec. 24h Prec.
00:07 15.1 5.3 52 197 0.8 1.1 1025.1 0.0000 0.0000
00:17 14.9 5.4 53 195 0.8 1.1 1025.3 0.0000 0.0000
00:27 14.7 5.5 54 236 0.8 1.9 1025.3 0.0000 0.0000
00:36 14.4 5.5 55 225 0.3 1.4 1025.3 0.0000 0.0000
00:47 14.3 5.4 55 210 0.3 1.1 1025.1 0.0000 0.0000
00:57 14 5.4 56 270 0.8 1.9 1025 0.0000 0.0000
01:07 13.7 5.3 57 258 0.8 2.2 1025 0.0000 0.0000
01:17 13.5 5.2 57 241 0.8 1.9 1025 0.0000 0.0000
01:27 13.2 5.1 58 198 0.8 1.1 1024.9 0.0000 0.0000
01:37 13 4.9 58 228 0.8 1.4 1024.9 0.0000 0.0000
01:47 12.9 4.8 58 230 0.8 1.1 1024.9 0.0000 0.0000
01:58 12.7 4.9 59 198 0.8 1.4 1024.7 0.0000 0.0000
02:08 12.5 5 60 225 0.8 1.4 1024.8 0.0000 0.0000
02:17 12.4 5.1 61 218 0.8 1.1 1024.5 0.0000 0.0000
02:28 12.2 4.9 61 203 0.8 1.1 1024.6 0.0000 0.0000
02:38 11.9 4.9 62 225 0.8 1.4 1024.5 0.0000 0.0000
02:48 11.7 4.9 63 214 0.8 1.1 1024.4 0.0000 0.0000
02:57 11.6 4.6 62 213 0.8 1.4 1024.2 0.0000 0.0000
03:08 11.4 4.6 63 218 0.3 1.4 1024.1 0.0000 0.0000
03:18 11.3 4.5 63 199 0.8 1.9 1024.1 0.0000 0.0000
03:28 11.1 4.3 63 216 0.8 1.4 1024.2 0.0000 0.0000
03:38 10.9 4.4 64 210 0.8 1.1 1024.1 0.0000 0.0000
03:48 10.8 4.5 65 207 0.8 1.4 1023.8 0.0000 0.0000
03:58 10.5 4.2 65 198 0.8 1.4 1024 0.0000 0.0000
04:08 10.4 4.3 66 199 0.8 1.4 1023.8 0.0000 0.0000
04:19 10.3 4.2 66 208 0.8 1.4 1023.7 0.0000 0.0000
04:29 10.3 4.2 66 203 0.8 1.1 1023.6 0.0000 0.0000
04:39 10.2 4.1 66 198 0.8 1.1 1023.7 0.0000 0.0000
04:49 10.1 4 66 203 0.8 1.1 1023.4 0.0000 0.0000
04:59 10 4.2 67 205 0.8 1.4 1023.5 0.0000 0.0000
05:09 10 4.4 68 215 0.8 1.1 1023.5 0.0000 0.0000
05:19 10 4.4 68 214 0.8 1.1 1023.4 0.0000 0.0000
05:30 9.9 4.3 68 203 0.8 1.1 1023.4 0.0000 0.0000
05:39 9.7 4.1 68 210 0.8 1.4 1023.3 0.0000 0.0000
05:49 9.5 4.1 69 196 0.8 1.4 1023.3 0.0000 0.0000
05:59 9.4 4 69 213 0.8 1.1 1023.2 0.0000 0.0000
06:10 9.3 3.9 69 228 0.8 1.9 1023.2 0.0000 0.0000
06:18 9.1 3.7 69 198 0.8 1.1 1023.2 0.0000 0.0000
06:28 9 3.6 69 205 0.8 1.1 1023.2 0.0000 0.0000
06:38 8.9 3.5 69 205 0.3 1.1 1023.1 0.0000 0.0000
06:48 8.8 3.6 70 225 0.8 1.4 1023.3 0.0000 0.0000
06:59 8.8 3.6 70 236 0.8 1.9 1023.1 0.0000 0.0000
07:09 8.7 3.7 71 197 0.8 1.1 1023.3 0.0000 0.0000
07:18 8.7 3.7 71 204 0.8 1.1 1023.3 0.0000 0.0000
07:28 8.8 3.8 71 204 0.8 1.4 1023.2 0.0000 0.0000
07:38 9 4 71 208 0.8 1.1 1023.2 0.0000 0.0000
07:48 9.1 4.3 72 204 0.8 1.9 1023.2 0.0000 0.0000
07:58 9.2 4.6 73 199 0.8 1.1 1023.2 0.0000 0.0000
08:08 9.4 4.8 73 187 0.8 1.4 1023.3 0.0000 0.0000
08:19 9.5 4.7 72 304 0.8 1.9 1023.2 0.0000 0.0000
08:28 9.7 4.7 71 215 0.3 1.4 1023.3 0.0000 0.0000
08:38 9.8 4.4 69 291 0.8 1.9 1023.2 0.0000 0.0000
08:49 10.1 4.3 67 215 0.8 1.4 1023.3 0.0000 0.0000
08:59 10.4 4.3 66 270 0.8 1.9 1023.2 0.0000 0.0000
09:09 10.8 4.5 65 315 1.1 2.2 1023.3 0.0000 0.0000
09:19 11 4.7 65 301 1.1 2.2 1023.2 0.0000 0.0000
09:29 11.3 4.7 64 203 0.3 1.1 1023.2 0.0000 0.0000
09:39 11.6 5 64 300 0.8 1.4 1023.2 0.0000 0.0000
09:49 11.8 5 63 315 0.8 2.2 1023.1 0.0000 0.0000
10:00 12.1 5 62 195 0.8 1.9 1023 0.0000 0.0000
10:09 12.3 5.2 62 206 0.8 1.4 1023.1 0.0000 0.0000
10:19 12.5 5.2 61 199 0.8 1.9 1023.1 0.0000 0.0000
10:29 12.8 5.2 60 300 0.8 2.2 1023.1 0.0000 0.0000
10:40 13.1 5.5 60 296 1.1 2.2 1023.2 0.0000 0.0000
10:50 13.5 5.9 60 300 0.8 1.9 1023.1 0.0000 0.0000
10:59 13.8 5.9 59 311 0.8 1.9 1022.8 0.0000 0.0000
11:10 14.1 6 58 285 1.1 2.2 1022.8 0.0000 0.0000
11:20 14.6 6.4 58 270 0.8 1.9 1022.8 0.0000 0.0000
11:30 14.9 6.5 57 312 1.1 1.9 1022.7 0.0000 0.0000
11:39 15.2 6.2 55 311 0.8 2.2 1022.7 0.0000 0.0000
11:50 15.6 6.1 53 308 0.8 1.4 1022.4 0.0000 0.0000
12:00 16.1 6.5 53 307 1.1 1.9 1022.3 0.0000 0.0000
12:09 16.4 6.2 51 291 1.1 2.2 1022.3 0.0000 0.0000
12:19 16.7 6.8 52 270 0.8 1.4 1022.1 0.0000 0.0000
12:29 17 7.1 52 247 0.8 1.9 1022.1 0.0000 0.0000
12:38 17.2 6.7 50 270 0.8 1.9 1021.9 0.0000 0.0000
12:49 17.5 7.3 51 270 0.8 2.2 1021.7 0.0000 0.0000
12:59 17.8 6.3 47 239 1.1 2.2 1021.6 0.0000 0.0000
13:09 18.1 6.3 46 328 1.4 2.8 1021.7 0.0000 0.0000
13:19 18.3 5.9 44 344 1.9 2.8 1021.4 0.0000 0.0000
13:29 18.6 5.8 43 332 1.9 3.6 1021.4 0.0000 0.0000
13:39 18.9 6.1 43 325 1.9 3.3 1021.3 0.0000 0.0000
13:49 19.1 6.6 44 310 1.4 2.8 1021.3 0.0000 0.0000
13:59 19.4 6.8 44 315 1.1 2.2 1021 0.0000 0.0000
14:09 19.7 7.1 44 315 1.4 2.8 1021 0.0000 0.0000
14:19 19.9 8 46 288 0.8 1.9 1021 0.0000 0.0000
14:30 20.1 7.1 43 270 0.8 2.2 1020.8 0.0000 0.0000
14:39 20.2 7.6 44 270 0.8 2.2 1020.6 0.0000 0.0000
14:49 20.4 6.7 41 284 1.4 2.5 1020.5 0.0000 0.0000
14:59 20.6 6.5 40 270 1.1 2.8 1020.5 0.0000 0.0000
15:09 20.7 7 41 270 0.8 1.9 1020.3 0.0000 0.0000
15:19 20.8 6.7 40 280 0.8 1.9 1020.2 0.0000 0.0000
15:29 21 6.9 40 248 0.8 1.9 1020 0.0000 0.0000
15:40 21.1 6.2 38 281 1.1 2.5 1019.9 0.0000 0.0000
15:49 21.2 7.1 40 254 1.1 2.2 1019.7 0.0000 0.0000
15:59 21.4 7.3 40 295 1.1 3.3 1019.4 0.0000 0.0000
16:09 21.5 7 39 237 0.8 1.9 1019.4 0.0000 0.0000
16:20 21.5 7.3 40 221 0.8 1.4 1019.3 0.0000 0.0000
16:29 21.6 7.4 40 235 0.8 1.9 1019.3 0.0000 0.0000
16:39 21.6 7.8 41 234 0.8 1.9 1019 0.0000 0.0000
16:50 21.8 6.5 37 287 1.1 2.5 1019 0.0000 0.0000
17:00 22.1 7.1 38 309 1.1 2.2 1018.8 0.0000 0.0000
17:09 22.2 8 40 236 0.8 2.5 1018.7 0.0000 0.0000
17:20 22.1 7.1 38 219 0.3 1.9 1018.6 0.0000 0.0000
17:30 22.1 7.5 39 221 0.8 1.9 1018.5 0.0000 0.0000
17:40 22.1 6.7 37 198 0.3 1.4 1018.4 0.0000 0.0000
17:49 22.2 7.2 38 228 0.8 2.2 1018.1 0.0000 0.0000
18:00 22.3 8.4 41 230 0.8 1.4 1018.1 0.0000 0.0000
18:10 22.3 7.7 39 221 0.8 1.4 1018 0.0000 0.0000
18:20 22.3 7.7 39 225 0.8 1.9 1017.8 0.0000 0.0000
18:29 22.4 8.2 40 235 0.8 1.9 1017.7 0.0000 0.0000
18:40 22.3 7.3 38 196 0.8 1.9 1017.6 0.0000 0.0000
18:50 22.3 7.3 38 239 0.8 2.5 1017.5 0.0000 0.0000
19:00 22.2 8.3 41 210 0.8 1.4 1017.4 0.0000 0.0000
19:10 21.9 8.4 42 209 0.8 1.4 1017.3 0.0000 0.0000
19:20 21.6 8.5 43 222 0.8 1.4 1017.2 0.0000 0.0000
19:30 21.3 8.2 43 209 0.8 1.1 1017.1 0.0000 0.0000
19:41 21.2 8.5 44 199 0.8 1.1 1017 0.0000 0.0000
19:50 21.1 8.4 44 198 0.8 1.1 1017 0.0000 0.0000
20:00 21 8 43 208 0.8 1.1 1017 0.0000 0.0000
20:10 21 8.3 44 228 0.8 1.4 1016.9 0.0000 0.0000
20:21 20.8 8.8 46 216 0.8 1.1 1016.9 0.0000 0.0000
20:30 20.6 8.6 46 209 0.8 1.1 1016.8 0.0000 0.0000
20:40 20.3 8.6 47 205 0.3 1.1 1016.8 0.0000 0.0000
20:51 20 9 49 201 0.3 0.8 1016.8 0.0000 0.0000
21:01 19.5 8.2 48 205 0.3 1.1 1016.8 0.0000 0.0000
21:10 19.1 8.1 49 202 0.8 1.1 1016.7 0.0000 0.0000
21:20 18.8 8.2 50 221 0.3 1.1 1016.9 0.0000 0.0000
21:31 18.4 8.1 51 190 0.8 1.4 1016.8 0.0000 0.0000
21:41 18.2 7.9 51 213 0.8 1.1 1016.8 0.0000 0.0000
21:50 17.9 7.9 52 270 0.3 1.9 1016.8 0.0000 0.0000
22:01 17.5 7.8 53 202 0.3 1.1 1016.8 0.0000 0.0000
22:11 17.1 7.7 54 210 0.3 1.1 1016.7 0.0000 0.0000
22:21 16.8 7.7 55 216 0.3 1.1 1016.6 0.0000 0.0000
22:31 16.4 7.6 56 225 0.8 1.1 1016.6 0.0000 0.0000
22:41 15.9 7.4 57 211 0.8 1.1 1016.5 0.0000 0.0000
22:51 15.6 7.4 58 270 0.8 1.4 1016.6 0.0000 0.0000
23:01 15.1 7.2 59 270 0.8 1.4 1016.5 0.0000 0.0000
23:16 14.6 6.9 60 214 0.8 1.4 1016.3 0.0000 0.0000
23:26 14.4 7 61 247 0.8 1.9 1016.3 0.0000 0.0000
23:36 14.2 6.8 61 214 0.8 1.4 1016.3 0.0000 0.0000
23:46 13.9 6.7 62 231 0.8 1.9 1016.3 0.0000 0.0000
23:56 13.6 6.5 62 212 0.8 1.1 1016.3 0.0000 0.0000

DAY STATISTIC

2019-04-21
TEMPERATURE
AVERAGE
15.5
HIGH
22.4
18:29
LOW
8.7
07:09
PRESSURE
AVERAGE
1021.2
HIGH
1025.3
00:17
LOW
1016.3
23:16
DEWPOINT
AVERAGE
6.1
HIGH
9.0
20:51
LOW
3.5
06:38
HUMIDITY
AVERAGE
55
HIGH
73
07:58
LOW
37
16:50
WIND SPEED
AVERAGE
0.8
HIGH
1.9
13:19
WIND GUST
AVERAGE
1.7
HIGH
3.6
13:29
WIND DIRECTION
PREVAILING
SW
46.2%
N
0.7
NE
0.0
E
0.0
SE
0.0
S
21.7
SW
46.2
W
16.8
NW
14.7
PRECIPITATION
RAIN HOUR
0.0
RAIN DAY
0.0
TEMPERATURE (°C)
LOW
8.7
HIGH
22.4
AVERAGE
15.5
PRESSURE (hpa)
LOW
1016.3
HIGH
1025.3
AVERAGE
1021.2
DEVICE